sensor_id;sensor_type;location;lat;lon;timestamp;P1;P2;P0
39955;PMS5003;25631;51.516;-0.470;2022-08-21T00:01:19;9;4;
39955;PMS5003;25631;51.516;-0.470;2022-08-21T00:03:57;9;4;
39955;PMS5003;25631;51.516;-0.470;2022-08-21T00:06:39;8;3;
39955;PMS5003;25631;51.516;-0.470;2022-08-21T00:09:16;8;3;
39955;PMS5003;25631;51.516;-0.470;2022-08-21T00:11:53;8;3;
39955;PMS5003;25631;51.516;-0.470;2022-08-21T00:14:29;5;3;
39955;PMS5003;25631;51.516;-0.470;2022-08-21T00:17:06;5;3;
39955;PMS5003;25631;51.516;-0.470;2022-08-21T00:19:43;5;3;
39955;PMS5003;25631;51.516;-0.470;2022-08-21T00:22:19;5;3;
39955;PMS5003;25631;51.516;-0.470;2022-08-21T00:24:56;5;3;
39955;PMS5003;25631;51.516;-0.470;2022-08-21T00:27:32;5;3;
39955;PMS5003;25631;51.516;-0.470;2022-08-21T00:30:10;3;3;
39955;PMS5003;25631;51.516;-0.470;2022-08-21T00:32:47;3;3;
39955;PMS5003;25631;51.516;-0.470;2022-08-21T00:35:24;3;3;
39955;PMS5003;25631;51.516;-0.470;2022-08-21T00:38:03;4;3;
39955;PMS5003;25631;51.516;-0.470;2022-08-21T00:40:44;4;3;
39955;PMS5003;25631;51.516;-0.470;2022-08-21T00:43:24;4;3;
39955;PMS5003;25631;51.516;-0.470;2022-08-21T00:46:05;5;3;
39955;PMS5003;25631;51.516;-0.470;2022-08-21T00:48:42;5;3;
39955;PMS5003;25631;51.516;-0.470;2022-08-21T00:51:19;5;3;
39955;PMS5003;25631;51.516;-0.470;2022-08-21T00:53:59;5;4;
39955;PMS5003;25631;51.516;-0.470;2022-08-21T00:56:37;5;4;
39955;PMS5003;25631;51.516;-0.470;2022-08-21T00:59:14;5;4;
39955;PMS5003;25631;51.516;-0.470;2022-08-21T01:01:52;5;3;
39955;PMS5003;25631;51.516;-0.470;2022-08-21T01:04:29;5;3;
39955;PMS5003;25631;51.516;-0.470;2022-08-21T01:07:05;5;3;
39955;PMS5003;25631;51.516;-0.470;2022-08-21T01:09:43;4;3;
39955;PMS5003;25631;51.516;-0.470;2022-08-21T01:12:21;5;4;
39955;PMS5003;25631;51.516;-0.470;2022-08-21T01:14:58;5;4;
39955;PMS5003;25631;51.516;-0.470;2022-08-21T01:17:36;5;4;
39955;PMS5003;25631;51.516;-0.470;2022-08-21T01:20:13;5;4;
39955;PMS5003;25631;51.516;-0.470;2022-08-21T01:22:49;5;4;
39955;PMS5003;25631;51.516;-0.470;2022-08-21T01:25:26;5;4;
39955;PMS5003;25631;51.516;-0.470;2022-08-21T01:28:04;5;4;
39955;PMS5003;25631;51.516;-0.470;2022-08-21T01:30:46;4;3;
39955;PMS5003;25631;51.516;-0.470;2022-08-21T01:33:26;4;3;
39955;PMS5003;25631;51.516;-0.470;2022-08-21T01:36:02;4;3;
39955;PMS5003;25631;51.516;-0.470;2022-08-21T01:38:39;4;3;
39955;PMS5003;25631;51.516;-0.470;2022-08-21T01:41:16;4;3;
39955;PMS5003;25631;51.516;-0.470;2022-08-21T01:43:52;4;3;
39955;PMS5003;25631;51.516;-0.470;2022-08-21T01:46:29;4;3;
39955;PMS5003;25631;51.516;-0.470;2022-08-21T01:49:06;5;4;
39955;PMS5003;25631;51.516;-0.470;2022-08-21T01:51:43;5;4;
39955;PMS5003;25631;51.516;-0.470;2022-08-21T01:54:19;5;4;
39955;PMS5003;25631;51.516;-0.470;2022-08-21T01:56:56;4;3;
39955;PMS5003;25631;51.516;-0.470;2022-08-21T01:59:34;4;3;
39955;PMS5003;25631;51.516;-0.470;2022-08-21T02:02:11;4;3;
39955;PMS5003;25631;51.516;-0.470;2022-08-21T02:04:47;4;3;
39955;PMS5003;25631;51.516;-0.470;2022-08-21T02:07:24;4;3;
39955;PMS5003;25631;51.516;-0.470;2022-08-21T02:10:00;4;3;
39955;PMS5003;25631;51.516;-0.470;2022-08-21T02:12:37;4;2;
39955;PMS5003;25631;51.516;-0.470;2022-08-21T02:15:13;5;3;
39955;PMS5003;25631;51.516;-0.470;2022-08-21T02:17:51;5;3;
39955;PMS5003;25631;51.516;-0.470;2022-08-21T02:20:30;4;3;
39955;PMS5003;25631;51.516;-0.470;2022-08-21T02:23:10;4;3;
39955;PMS5003;25631;51.516;-0.470;2022-08-21T02:25:47;3;2;
39955;PMS5003;25631;51.516;-0.470;2022-08-21T02:28:23;4;3;
39955;PMS5003;25631;51.516;-0.470;2022-08-21T02:31:01;4;3;
39955;PMS5003;25631;51.516;-0.470;2022-08-21T02:33:38;5;4;
39955;PMS5003;25631;51.516;-0.470;2022-08-21T02:36:15;5;4;
39955;PMS5003;25631;51.516;-0.470;2022-08-21T02:38:51;5;4;
39955;PMS5003;25631;51.516;-0.470;2022-08-21T02:41:28;5;4;
39955;PMS5003;25631;51.516;-0.470;2022-08-21T02:44:05;5;4;
39955;PMS5003;25631;51.516;-0.470;2022-08-21T02:46:41;5;4;
39955;PMS5003;25631;51.516;-0.470;2022-08-21T02:49:17;5;4;
39955;PMS5003;25631;51.516;-0.470;2022-08-21T02:51:54;5;4;
39955;PMS5003;25631;51.516;-0.470;2022-08-21T02:54:30;5;4;
39955;PMS5003;25631;51.516;-0.470;2022-08-21T02:57:07;5;4;
39955;PMS5003;25631;51.516;-0.470;2022-08-21T02:59:43;5;4;
39955;PMS5003;25631;51.516;-0.470;2022-08-21T03:02:20;5;4;
39955;PMS5003;25631;51.516;-0.470;2022-08-21T03:04:56;5;4;
39955;PMS5003;25631;51.516;-0.470;2022-08-21T03:07:32;5;4;
39955;PMS5003;25631;51.516;-0.470;2022-08-21T03:10:09;5;4;
39955;PMS5003;25631;51.516;-0.470;2022-08-21T03:12:47;5;4;
39955;PMS5003;25631;51.516;-0.470;2022-08-21T03:15:24;6;5;
39955;PMS5003;25631;51.516;-0.470;2022-08-21T03:18:01;6;5;
39955;PMS5003;25631;51.516;-0.470;2022-08-21T03:20:38;6;5;
39955;PMS5003;25631;51.516;-0.470;2022-08-21T03:23:17;6;4;
39955;PMS5003;25631;51.516;-0.470;2022-08-21T03:25:53;6;4;
39955;PMS5003;25631;51.516;-0.470;2022-08-21T03:28:30;6;4;
39955;PMS5003;25631;51.516;-0.470;2022-08-21T03:31:06;6;4;
39955;PMS5003;25631;51.516;-0.470;2022-08-21T03:33:43;6;4;
39955;PMS5003;25631;51.516;-0.470;2022-08-21T03:36:19;6;4;
39955;PMS5003;25631;51.516;-0.470;2022-08-21T03:38:55;7;5;
39955;PMS5003;25631;51.516;-0.470;2022-08-21T03:41:32;7;5;
39955;PMS5003;25631;51.516;-0.470;2022-08-21T03:44:08;7;5;
39955;PMS5003;25631;51.516;-0.470;2022-08-21T03:46:45;5;3;
39955;PMS5003;25631;51.516;-0.470;2022-08-21T03:49:21;5;3;
39955;PMS5003;25631;51.516;-0.470;2022-08-21T03:51:57;5;3;
39955;PMS5003;25631;51.516;-0.470;2022-08-21T03:54:34;5;3;
39955;PMS5003;25631;51.516;-0.470;2022-08-21T03:57:10;5;3;
39955;PMS5003;25631;51.516;-0.470;2022-08-21T03:59:47;5;3;
39955;PMS5003;25631;51.516;-0.470;2022-08-21T04:02:24;5;3;
39955;PMS5003;25631;51.516;-0.470;2022-08-21T04:05:00;5;3;
39955;PMS5003;25631;51.516;-0.470;2022-08-21T04:07:36;5;3;
39955;PMS5003;25631;51.516;-0.470;2022-08-21T04:10:13;4;3;
39955;PMS5003;25631;51.516;-0.470;2022-08-21T04:12:49;4;3;
39955;PMS5003;25631;51.516;-0.470;2022-08-21T04:15:26;4;3;
39955;PMS5003;25631;51.516;-0.470;2022-08-21T04:18:03;5;3;
39955;PMS5003;25631;51.516;-0.470;2022-08-21T04:20:40;5;3;
39955;PMS5003;25631;51.516;-0.470;2022-08-21T04:23:19;5;3;
39955;PMS5003;25631;51.516;-0.470;2022-08-21T04:25:57;5;3;
39955;PMS5003;25631;51.516;-0.470;2022-08-21T04:28:33;5;3;
39955;PMS5003;25631;51.516;-0.470;2022-08-21T04:31:10;5;3;
39955;PMS5003;25631;51.516;-0.470;2022-08-21T04:33:47;4;2;
39955;PMS5003;25631;51.516;-0.470;2022-08-21T04:36:23;4;2;
39955;PMS5003;25631;51.516;-0.470;2022-08-21T04:38:59;4;2;
39955;PMS5003;25631;51.516;-0.470;2022-08-21T04:41:36;3;3;
39955;PMS5003;25631;51.516;-0.470;2022-08-21T04:44:12;3;3;
39955;PMS5003;25631;51.516;-0.470;2022-08-21T04:46:49;3;3;
39955;PMS5003;25631;51.516;-0.470;2022-08-21T04:49:25;4;3;
39955;PMS5003;25631;51.516;-0.470;2022-08-21T04:52:02;4;3;
39955;PMS5003;25631;51.516;-0.470;2022-08-21T04:54:39;4;3;
39955;PMS5003;25631;51.516;-0.470;2022-08-21T04:57:15;4;3;
39955;PMS5003;25631;51.516;-0.470;2022-08-21T04:59:52;4;3;
39955;PMS5003;25631;51.516;-0.470;2022-08-21T05:02:29;4;3;
39955;PMS5003;25631;51.516;-0.470;2022-08-21T05:05:06;5;3;
39955;PMS5003;25631;51.516;-0.470;2022-08-21T05:07:43;5;3;
39955;PMS5003;25631;51.516;-0.470;2022-08-21T05:10:21;5;3;
39955;PMS5003;25631;51.516;-0.470;2022-08-21T05:12:57;5;3;
39955;PMS5003;25631;51.516;-0.470;2022-08-21T05:15:35;5;3;
39955;PMS5003;25631;51.516;-0.470;2022-08-21T05:18:11;5;3;
39955;PMS5003;25631;51.516;-0.470;2022-08-21T05:20:48;5;4;
39955;PMS5003;25631;51.516;-0.470;2022-08-21T05:23:24;5;4;
39955;PMS5003;25631;51.516;-0.470;2022-08-21T05:26:01;5;4;
39955;PMS5003;25631;51.516;-0.470;2022-08-21T05:28:37;6;4;
39955;PMS5003;25631;51.516;-0.470;2022-08-21T05:31:14;6;4;
39955;PMS5003;25631;51.516;-0.470;2022-08-21T05:33:50;6;4;
39955;PMS5003;25631;51.516;-0.470;2022-08-21T05:36:27;6;3;
39955;PMS5003;25631;51.516;-0.470;2022-08-21T05:39:03;6;3;
39955;PMS5003;25631;51.516;-0.470;2022-08-21T05:41:40;6;3;
39955;PMS5003;25631;51.516;-0.470;2022-08-21T05:44:16;6;4;
39955;PMS5003;25631;51.516;-0.470;2022-08-21T05:46:53;6;4;
39955;PMS5003;25631;51.516;-0.470;2022-08-21T05:49:29;6;4;
39955;PMS5003;25631;51.516;-0.470;2022-08-21T05:52:05;6;4;
39955;PMS5003;25631;51.516;-0.470;2022-08-21T05:54:42;6;4;
39955;PMS5003;25631;51.516;-0.470;2022-08-21T05:57:18;6;4;
39955;PMS5003;25631;51.516;-0.470;2022-08-21T05:59:55;6;3;
39955;PMS5003;25631;51.516;-0.470;2022-08-21T06:02:31;6;3;
39955;PMS5003;25631;51.516;-0.470;2022-08-21T06:05:07;6;3;
39955;PMS5003;25631;51.516;-0.470;2022-08-21T06:07:44;5;3;
39955;PMS5003;25631;51.516;-0.470;2022-08-21T06:10:20;5;3;
39955;PMS5003;25631;51.516;-0.470;2022-08-21T06:12:56;5;3;
39955;PMS5003;25631;51.516;-0.470;2022-08-21T06:15:33;5;4;
39955;PMS5003;25631;51.516;-0.470;2022-08-21T06:18:10;5;4;
39955;PMS5003;25631;51.516;-0.470;2022-08-21T06:20:46;5;4;
39955;PMS5003;25631;51.516;-0.470;2022-08-21T06:23:23;5;4;
39955;PMS5003;25631;51.516;-0.470;2022-08-21T06:25:59;5;4;
39955;PMS5003;25631;51.516;-0.470;2022-08-21T06:28:37;5;4;
39955;PMS5003;25631;51.516;-0.470;2022-08-21T06:31:16;5;4;
39955;PMS5003;25631;51.516;-0.470;2022-08-21T06:33:55;5;4;
39955;PMS5003;25631;51.516;-0.470;2022-08-21T06:36:31;5;4;
39955;PMS5003;25631;51.516;-0.470;2022-08-21T06:39:07;5;4;
39955;PMS5003;25631;51.516;-0.470;2022-08-21T06:41:44;5;4;
39955;PMS5003;25631;51.516;-0.470;2022-08-21T06:44:20;5;4;
39955;PMS5003;25631;51.516;-0.470;2022-08-21T06:46:57;5;5;
39955;PMS5003;25631;51.516;-0.470;2022-08-21T06:49:33;5;5;
39955;PMS5003;25631;51.516;-0.470;2022-08-21T06:52:11;5;5;
39955;PMS5003;25631;51.516;-0.470;2022-08-21T06:54:48;4;4;
39955;PMS5003;25631;51.516;-0.470;2022-08-21T06:57:24;4;4;
39955;PMS5003;25631;51.516;-0.470;2022-08-21T07:00:02;4;4;
39955;PMS5003;25631;51.516;-0.470;2022-08-21T07:02:39;4;4;
39955;PMS5003;25631;51.516;-0.470;2022-08-21T07:05:15;4;4;
39955;PMS5003;25631;51.516;-0.470;2022-08-21T07:07:52;4;4;
39955;PMS5003;25631;51.516;-0.470;2022-08-21T07:10:29;4;4;
39955;PMS5003;25631;51.516;-0.470;2022-08-21T07:13:05;4;4;
39955;PMS5003;25631;51.516;-0.470;2022-08-21T07:15:41;4;4;
39955;PMS5003;25631;51.516;-0.470;2022-08-21T07:18:18;4;4;
39955;PMS5003;25631;51.516;-0.470;2022-08-21T07:20:54;4;4;
39955;PMS5003;25631;51.516;-0.470;2022-08-21T07:23:32;4;4;
39955;PMS5003;25631;51.516;-0.470;2022-08-21T07:26:12;5;5;
39955;PMS5003;25631;51.516;-0.470;2022-08-21T07:28:50;5;5;
39955;PMS5003;25631;51.516;-0.470;2022-08-21T07:31:27;5;5;
39955;PMS5003;25631;51.516;-0.470;2022-08-21T07:34:04;5;5;
39955;PMS5003;25631;51.516;-0.470;2022-08-21T07:36:41;5;5;
39955;PMS5003;25631;51.516;-0.470;2022-08-21T07:39:17;5;5;
39955;PMS5003;25631;51.516;-0.470;2022-08-21T07:41:53;4;4;
39955;PMS5003;25631;51.516;-0.470;2022-08-21T07:44:29;4;4;
39955;PMS5003;25631;51.516;-0.470;2022-08-21T07:47:06;4;4;
39955;PMS5003;25631;51.516;-0.470;2022-08-21T07:49:42;6;5;
39955;PMS5003;25631;51.516;-0.470;2022-08-21T07:52:19;6;5;
39955;PMS5003;25631;51.516;-0.470;2022-08-21T07:54:55;6;5;
39955;PMS5003;25631;51.516;-0.470;2022-08-21T07:57:31;6;5;
39955;PMS5003;25631;51.516;-0.470;2022-08-21T08:00:10;6;5;
39955;PMS5003;25631;51.516;-0.470;2022-08-21T08:02:50;6;5;
39955;PMS5003;25631;51.516;-0.470;2022-08-21T08:05:28;5;4;
39955;PMS5003;25631;51.516;-0.470;2022-08-21T08:08:06;5;4;
39955;PMS5003;25631;51.516;-0.470;2022-08-21T08:10:43;5;4;
39955;PMS5003;25631;51.516;-0.470;2022-08-21T08:13:20;5;4;
39955;PMS5003;25631;51.516;-0.470;2022-08-21T08:15:56;5;4;
39955;PMS5003;25631;51.516;-0.470;2022-08-21T08:18:33;5;4;
39955;PMS5003;25631;51.516;-0.470;2022-08-21T08:21:10;6;5;
39955;PMS5003;25631;51.516;-0.470;2022-08-21T08:23:48;6;5;
39955;PMS5003;25631;51.516;-0.470;2022-08-21T08:26:25;6;5;
39955;PMS5003;25631;51.516;-0.470;2022-08-21T08:29:02;6;5;
39955;PMS5003;25631;51.516;-0.470;2022-08-21T08:31:38;6;5;
39955;PMS5003;25631;51.516;-0.470;2022-08-21T08:34:14;6;5;
39955;PMS5003;25631;51.516;-0.470;2022-08-21T08:36:51;6;5;
39955;PMS5003;25631;51.516;-0.470;2022-08-21T08:39:27;6;5;
39955;PMS5003;25631;51.516;-0.470;2022-08-21T08:42:05;6;5;
39955;PMS5003;25631;51.516;-0.470;2022-08-21T08:44:45;6;5;
39955;PMS5003;25631;51.516;-0.470;2022-08-21T08:47:22;6;5;
39955;PMS5003;25631;51.516;-0.470;2022-08-21T08:50:04;6;5;
39955;PMS5003;25631;51.516;-0.470;2022-08-21T08:52:45;6;5;
39955;PMS5003;25631;51.516;-0.470;2022-08-21T08:55:26;6;5;
39955;PMS5003;25631;51.516;-0.470;2022-08-21T08:58:09;6;5;
39955;PMS5003;25631;51.516;-0.470;2022-08-21T09:00:52;6;5;
39955;PMS5003;25631;51.516;-0.470;2022-08-21T09:03:30;6;5;
39955;PMS5003;25631;51.516;-0.470;2022-08-21T09:06:08;6;5;
39955;PMS5003;25631;51.516;-0.470;2022-08-21T09:08:54;5;4;
39955;PMS5003;25631;51.516;-0.470;2022-08-21T09:11:40;5;4;
39955;PMS5003;25631;51.516;-0.470;2022-08-21T09:14:26;5;4;
39955;PMS5003;25631;51.516;-0.470;2022-08-21T09:17:15;4;4;
39955;PMS5003;25631;51.516;-0.470;2022-08-21T09:20:07;4;4;
39955;PMS5003;25631;51.516;-0.470;2022-08-21T09:22:57;4;4;
39955;PMS5003;25631;51.516;-0.470;2022-08-21T09:25:42;4;4;
39955;PMS5003;25631;51.516;-0.470;2022-08-21T09:28:30;4;4;
39955;PMS5003;25631;51.516;-0.470;2022-08-21T09:31:18;4;4;
39955;PMS5003;25631;51.516;-0.470;2022-08-21T09:33:59;4;4;
39955;PMS5003;25631;51.516;-0.470;2022-08-21T09:36:37;4;4;
39955;PMS5003;25631;51.516;-0.470;2022-08-21T09:39:22;4;4;
39955;PMS5003;25631;51.516;-0.470;2022-08-21T09:42:01;4;4;
39955;PMS5003;25631;51.516;-0.470;2022-08-21T09:44:40;4;4;
39955;PMS5003;25631;51.516;-0.470;2022-08-21T09:47:18;4;4;
39955;PMS5003;25631;51.516;-0.470;2022-08-21T09:49:55;5;4;
39955;PMS5003;25631;51.516;-0.470;2022-08-21T09:52:31;5;4;
39955;PMS5003;25631;51.516;-0.470;2022-08-21T09:55:07;5;4;
39955;PMS5003;25631;51.516;-0.470;2022-08-21T09:57:52;5;4;
39955;PMS5003;25631;51.516;-0.470;2022-08-21T10:00:30;5;4;
39955;PMS5003;25631;51.516;-0.470;2022-08-21T10:03:10;5;4;
39955;PMS5003;25631;51.516;-0.470;2022-08-21T10:05:50;5;3;
39955;PMS5003;25631;51.516;-0.470;2022-08-21T10:08:29;4;2;
39955;PMS5003;25631;51.516;-0.470;2022-08-21T10:11:09;4;2;
39955;PMS5003;25631;51.516;-0.470;2022-08-21T10:13:50;4;2;
39955;PMS5003;25631;51.516;-0.470;2022-08-21T10:16:32;5;3;
39955;PMS5003;25631;51.516;-0.470;2022-08-21T10:19:17;5;3;
39955;PMS5003;25631;51.516;-0.470;2022-08-21T10:22:04;4;3;
39955;PMS5003;25631;51.516;-0.470;2022-08-21T10:24:52;4;3;
39955;PMS5003;25631;51.516;-0.470;2022-08-21T10:27:44;4;3;
39955;PMS5003;25631;51.516;-0.470;2022-08-21T10:30:34;4;3;
39955;PMS5003;25631;51.516;-0.470;2022-08-21T10:33:20;4;3;
39955;PMS5003;25631;51.516;-0.470;2022-08-21T10:36:05;4;3;
39955;PMS5003;25631;51.516;-0.470;2022-08-21T10:38:58;6;3;
39955;PMS5003;25631;51.516;-0.470;2022-08-21T10:41:47;6;3;
39955;PMS5003;25631;51.516;-0.470;2022-08-21T10:44:43;6;3;
39955;PMS5003;25631;51.516;-0.470;2022-08-21T10:47:37;5;3;
39955;PMS5003;25631;51.516;-0.470;2022-08-21T10:50:24;5;3;
39955;PMS5003;25631;51.516;-0.470;2022-08-21T10:53:11;5;3;
39955;PMS5003;25631;51.516;-0.470;2022-08-21T10:56:10;5;3;
39955;PMS5003;25631;51.516;-0.470;2022-08-21T10:58:58;5;3;
39955;PMS5003;25631;51.516;-0.470;2022-08-21T11:01:44;5;3;
39955;PMS5003;25631;51.516;-0.470;2022-08-21T11:04:25;5;3;
39955;PMS5003;25631;51.516;-0.470;2022-08-21T11:07:07;5;3;
39955;PMS5003;25631;51.516;-0.470;2022-08-21T11:09:55;5;3;
39955;PMS5003;25631;51.516;-0.470;2022-08-21T11:12:38;5;3;
39955;PMS5003;25631;51.516;-0.470;2022-08-21T11:15:25;4;2;
39955;PMS5003;25631;51.516;-0.470;2022-08-21T11:18:12;4;2;
39955;PMS5003;25631;51.516;-0.470;2022-08-21T11:20:59;3;2;
39955;PMS5003;25631;51.516;-0.470;2022-08-21T11:23:41;4;3;
39955;PMS5003;25631;51.516;-0.470;2022-08-21T11:26:23;4;3;
39955;PMS5003;25631;51.516;-0.470;2022-08-21T11:29:17;5;3;
39955;PMS5003;25631;51.516;-0.470;2022-08-21T11:32:02;5;3;
39955;PMS5003;25631;51.516;-0.470;2022-08-21T11:34:51;5;3;
39955;PMS5003;25631;51.516;-0.470;2022-08-21T11:37:40;5;3;
39955;PMS5003;25631;51.516;-0.470;2022-08-21T11:40:39;5;3;
39955;PMS5003;25631;51.516;-0.470;2022-08-21T11:43:25;5;3;
39955;PMS5003;25631;51.516;-0.470;2022-08-21T11:46:16;5;3;
39955;PMS5003;25631;51.516;-0.470;2022-08-21T11:49:05;5;3;
39955;PMS5003;25631;51.516;-0.470;2022-08-21T11:51:50;5;3;
39955;PMS5003;25631;51.516;-0.470;2022-08-21T11:54:33;6;4;
39955;PMS5003;25631;51.516;-0.470;2022-08-21T11:57:16;6;4;
39955;PMS5003;25631;51.516;-0.470;2022-08-21T11:59:57;6;4;
39955;PMS5003;25631;51.516;-0.470;2022-08-21T12:02:37;5;4;
39955;PMS5003;25631;51.516;-0.470;2022-08-21T12:05:27;5;4;
39955;PMS5003;25631;51.516;-0.470;2022-08-21T12:08:11;5;4;
39955;PMS5003;25631;51.516;-0.470;2022-08-21T12:10:59;4;3;
39955;PMS5003;25631;51.516;-0.470;2022-08-21T12:13:39;4;3;
39955;PMS5003;25631;51.516;-0.470;2022-08-21T12:16:29;4;3;
39955;PMS5003;25631;51.516;-0.470;2022-08-21T12:19:08;5;3;
39955;PMS5003;25631;51.516;-0.470;2022-08-21T12:21:48;6;4;
39955;PMS5003;25631;51.516;-0.470;2022-08-21T12:24:32;6;4;
39955;PMS5003;25631;51.516;-0.470;2022-08-21T12:27:17;7;4;
39955;PMS5003;25631;51.516;-0.470;2022-08-21T12:29:58;7;4;
39955;PMS5003;25631;51.516;-0.470;2022-08-21T12:32:43;7;4;
39955;PMS5003;25631;51.516;-0.470;2022-08-21T12:35:21;6;4;
39955;PMS5003;25631;51.516;-0.470;2022-08-21T12:38:02;6;4;
39955;PMS5003;25631;51.516;-0.470;2022-08-21T12:40:49;5;3;
39955;PMS5003;25631;51.516;-0.470;2022-08-21T12:43:30;5;3;
39955;PMS5003;25631;51.516;-0.470;2022-08-21T12:46:14;5;3;
39955;PMS5003;25631;51.516;-0.470;2022-08-21T12:48:54;5;3;
39955;PMS5003;25631;51.516;-0.470;2022-08-21T12:51:38;5;3;
39955;PMS5003;25631;51.516;-0.470;2022-08-21T12:54:28;5;3;
39955;PMS5003;25631;51.516;-0.470;2022-08-21T12:57:18;5;3;
39955;PMS5003;25631;51.516;-0.470;2022-08-21T12:59:58;6;4;
39955;PMS5003;25631;51.516;-0.470;2022-08-21T13:02:36;6;4;
39955;PMS5003;25631;51.516;-0.470;2022-08-21T13:05:20;6;4;
39955;PMS5003;25631;51.516;-0.470;2022-08-21T13:08:04;7;4;
39955;PMS5003;25631;51.516;-0.470;2022-08-21T13:10:43;7;4;
39955;PMS5003;25631;51.516;-0.470;2022-08-21T13:13:22;7;4;
39955;PMS5003;25631;51.516;-0.470;2022-08-21T13:16:02;6;4;
39955;PMS5003;25631;51.516;-0.470;2022-08-21T13:18:51;6;4;
39955;PMS5003;25631;51.516;-0.470;2022-08-21T13:21:31;6;4;
39955;PMS5003;25631;51.516;-0.470;2022-08-21T13:24:11;7;5;
39955;PMS5003;25631;51.516;-0.470;2022-08-21T13:26:51;7;5;
39955;PMS5003;25631;51.516;-0.470;2022-08-21T13:29:29;7;5;
39955;PMS5003;25631;51.516;-0.470;2022-08-21T13:32:06;7;5;
39955;PMS5003;25631;51.516;-0.470;2022-08-21T13:34:51;7;5;
39955;PMS5003;25631;51.516;-0.470;2022-08-21T13:37:28;7;5;
39955;PMS5003;25631;51.516;-0.470;2022-08-21T13:40:06;6;4;
39955;PMS5003;25631;51.516;-0.470;2022-08-21T13:42:46;6;4;
39955;PMS5003;25631;51.516;-0.470;2022-08-21T13:45:25;6;4;
39955;PMS5003;25631;51.516;-0.470;2022-08-21T13:48:03;5;4;
39955;PMS5003;25631;51.516;-0.470;2022-08-21T13:50:40;5;4;
39955;PMS5003;25631;51.516;-0.470;2022-08-21T13:53:20;5;4;
39955;PMS5003;25631;51.516;-0.470;2022-08-21T13:55:59;5;4;
39955;PMS5003;25631;51.516;-0.470;2022-08-21T13:58:41;5;4;
39955;PMS5003;25631;51.516;-0.470;2022-08-21T14:01:21;5;4;
39955;PMS5003;25631;51.516;-0.470;2022-08-21T14:04:02;5;4;
39955;PMS5003;25631;51.516;-0.470;2022-08-21T14:06:43;5;4;
39955;PMS5003;25631;51.516;-0.470;2022-08-21T14:09:22;5;4;
39955;PMS5003;25631;51.516;-0.470;2022-08-21T14:12:11;5;3;
39955;PMS5003;25631;51.516;-0.470;2022-08-21T14:14:50;5;3;
39955;PMS5003;25631;51.516;-0.470;2022-08-21T14:17:32;5;3;
39955;PMS5003;25631;51.516;-0.470;2022-08-21T14:20:12;4;3;
39955;PMS5003;25631;51.516;-0.470;2022-08-21T14:23:02;4;3;
39955;PMS5003;25631;51.516;-0.470;2022-08-21T14:25:40;4;3;
39955;PMS5003;25631;51.516;-0.470;2022-08-21T14:28:19;4;3;
39955;PMS5003;25631;51.516;-0.470;2022-08-21T14:31:11;4;3;
39955;PMS5003;25631;51.516;-0.470;2022-08-21T14:33:49;4;3;
39955;PMS5003;25631;51.516;-0.470;2022-08-21T14:36:26;3;3;
39955;PMS5003;25631;51.516;-0.470;2022-08-21T14:39:02;3;3;
39955;PMS5003;25631;51.516;-0.470;2022-08-21T14:41:39;3;3;
39955;PMS5003;25631;51.516;-0.470;2022-08-21T14:44:17;3;3;
39955;PMS5003;25631;51.516;-0.470;2022-08-21T14:46:54;3;3;
39955;PMS5003;25631;51.516;-0.470;2022-08-21T14:49:31;3;3;
39955;PMS5003;25631;51.516;-0.470;2022-08-21T14:52:07;3;3;
39955;PMS5003;25631;51.516;-0.470;2022-08-21T14:54:43;3;3;
39955;PMS5003;25631;51.516;-0.470;2022-08-21T14:57:20;3;3;
39955;PMS5003;25631;51.516;-0.470;2022-08-21T14:59:57;4;3;
39955;PMS5003;25631;51.516;-0.470;2022-08-21T15:02:33;4;3;
39955;PMS5003;25631;51.516;-0.470;2022-08-21T15:05:10;4;3;
39955;PMS5003;25631;51.516;-0.470;2022-08-21T15:07:46;3;3;
39955;PMS5003;25631;51.516;-0.470;2022-08-21T15:10:23;3;3;
39955;PMS5003;25631;51.516;-0.470;2022-08-21T15:12:59;3;3;
39955;PMS5003;25631;51.516;-0.470;2022-08-21T15:15:39;3;2;
39955;PMS5003;25631;51.516;-0.470;2022-08-21T15:18:17;3;2;
39955;PMS5003;25631;51.516;-0.470;2022-08-21T15:20:54;3;2;
39955;PMS5003;25631;51.516;-0.470;2022-08-21T15:23:30;3;3;
39955;PMS5003;25631;51.516;-0.470;2022-08-21T15:26:07;4;4;
39955;PMS5003;25631;51.516;-0.470;2022-08-21T15:28:44;4;4;
39955;PMS5003;25631;51.516;-0.470;2022-08-21T15:31:20;4;3;
39955;PMS5003;25631;51.516;-0.470;2022-08-21T15:33:57;4;3;
39955;PMS5003;25631;51.516;-0.470;2022-08-21T15:36:33;4;3;
39955;PMS5003;25631;51.516;-0.470;2022-08-21T15:39:09;5;4;
39955;PMS5003;25631;51.516;-0.470;2022-08-21T15:41:46;5;4;
39955;PMS5003;25631;51.516;-0.470;2022-08-21T15:44:22;4;3;
39955;PMS5003;25631;51.516;-0.470;2022-08-21T15:47:01;3;2;
39955;PMS5003;25631;51.516;-0.470;2022-08-21T15:49:38;3;2;
39955;PMS5003;25631;51.516;-0.470;2022-08-21T15:52:15;3;2;
39955;PMS5003;25631;51.516;-0.470;2022-08-21T15:54:53;3;2;
39955;PMS5003;25631;51.516;-0.470;2022-08-21T15:57:30;3;2;
39955;PMS5003;25631;51.516;-0.470;2022-08-21T16:00:10;3;2;
39955;PMS5003;25631;51.516;-0.470;2022-08-21T16:02:50;2;2;
39955;PMS5003;25631;51.516;-0.470;2022-08-21T16:05:30;2;2;
39955;PMS5003;25631;51.516;-0.470;2022-08-21T16:08:06;2;2;
39955;PMS5003;25631;51.516;-0.470;2022-08-21T16:10:42;4;3;
39955;PMS5003;25631;51.516;-0.470;2022-08-21T16:13:20;4;3;
39955;PMS5003;25631;51.516;-0.470;2022-08-21T16:16:01;4;3;
39955;PMS5003;25631;51.516;-0.470;2022-08-21T16:18:38;4;3;
39955;PMS5003;25631;51.516;-0.470;2022-08-21T16:21:16;4;3;
39955;PMS5003;25631;51.516;-0.470;2022-08-21T16:23:53;4;3;
39955;PMS5003;25631;51.516;-0.470;2022-08-21T16:26:29;4;3;
39955;PMS5003;25631;51.516;-0.470;2022-08-21T16:29:06;4;3;
39955;PMS5003;25631;51.516;-0.470;2022-08-21T16:31:43;4;3;
39955;PMS5003;25631;51.516;-0.470;2022-08-21T16:34:19;4;3;
39955;PMS5003;25631;51.516;-0.470;2022-08-21T16:36:56;4;3;
39955;PMS5003;25631;51.516;-0.470;2022-08-21T16:39:32;4;3;
39955;PMS5003;25631;51.516;-0.470;2022-08-21T16:42:09;4;3;
39955;PMS5003;25631;51.516;-0.470;2022-08-21T16:44:48;4;3;
39955;PMS5003;25631;51.516;-0.470;2022-08-21T16:47:24;4;3;
39955;PMS5003;25631;51.516;-0.470;2022-08-21T16:50:00;4;3;
39955;PMS5003;25631;51.516;-0.470;2022-08-21T16:52:37;4;3;
39955;PMS5003;25631;51.516;-0.470;2022-08-21T16:55:13;4;3;
39955;PMS5003;25631;51.516;-0.470;2022-08-21T16:57:50;3;3;
39955;PMS5003;25631;51.516;-0.470;2022-08-21T17:00:27;3;3;
39955;PMS5003;25631;51.516;-0.470;2022-08-21T17:03:05;3;3;
39955;PMS5003;25631;51.516;-0.470;2022-08-21T17:05:42;3;3;
39955;PMS5003;25631;51.516;-0.470;2022-08-21T17:08:19;3;3;
39955;PMS5003;25631;51.516;-0.470;2022-08-21T17:10:55;3;3;
39955;PMS5003;25631;51.516;-0.470;2022-08-21T17:13:32;3;3;
39955;PMS5003;25631;51.516;-0.470;2022-08-21T17:16:09;3;3;
39955;PMS5003;25631;51.516;-0.470;2022-08-21T17:18:46;3;3;
39955;PMS5003;25631;51.516;-0.470;2022-08-21T17:21:22;4;3;
39955;PMS5003;25631;51.516;-0.470;2022-08-21T17:23:59;4;3;
39955;PMS5003;25631;51.516;-0.470;2022-08-21T17:26:35;4;3;
39955;PMS5003;25631;51.516;-0.470;2022-08-21T17:29:12;4;3;
39955;PMS5003;25631;51.516;-0.470;2022-08-21T17:31:49;4;3;
39955;PMS5003;25631;51.516;-0.470;2022-08-21T17:34:26;4;3;
39955;PMS5003;25631;51.516;-0.470;2022-08-21T17:37:03;4;4;
39955;PMS5003;25631;51.516;-0.470;2022-08-21T17:39:41;4;4;
39955;PMS5003;25631;51.516;-0.470;2022-08-21T17:42:17;4;4;
39955;PMS5003;25631;51.516;-0.470;2022-08-21T17:44:54;5;4;
39955;PMS5003;25631;51.516;-0.470;2022-08-21T17:47:31;5;4;
39955;PMS5003;25631;51.516;-0.470;2022-08-21T17:50:09;5;4;
39955;PMS5003;25631;51.516;-0.470;2022-08-21T17:52:49;4;4;